<?xml version="1.0" encoding="UTF-8" standalone="no" ?>
<gpx xmlns="http://www.topografix.com/GPX/1/1" xmlns:xsi="http://www.w3.org/2001/XMLSchema-instance" xsi:schemaLocation="http://www.topografix.com/GPX/1/1 http://www.topografix.com/GPX/1/1/gpx.xsd" version="1.1" creator="VisuGPX - https://www.visugpx.com">
  <metadata>
    <name>L'Authie, le ravin et la lande</name>
  </metadata>
  <wpt lat="50.23452" lon="2.17491">
    <ele>53</ele>
    <name><![CDATA[Place de la Mairie à Nœux-lès-Auxi]]></name>
  </wpt>
  <wpt lat="50.23329" lon="2.17647">
    <ele>65.1</ele>
    <name><![CDATA[Rejoindre l'ancienne voie ferrée]]></name>
  </wpt>
  <wpt lat="50.22265" lon="2.14879">
    <ele>44.7</ele>
    <name><![CDATA[Jonction avec la D 938]]></name>
  </wpt>
  <wpt lat="50.22585" lon="2.12605">
    <ele>30.3</ele>
    <name><![CDATA[Le Pont Rouge]]></name>
  </wpt>
  <wpt lat="50.23022" lon="2.12785">
    <ele>59.3</ele>
    <name><![CDATA[Jonction avec la D 941]]></name>
  </wpt>
  <wpt lat="50.23251" lon="2.12964">
    <ele>85.3</ele>
    <name><![CDATA[Partir sur le Chemin de Nœux]]></name>
  </wpt>
  <wpt lat="50.23225" lon="2.15142">
    <ele>118.4</ele>
    <name><![CDATA[Partir en épingle à gauche]]></name>
  </wpt>
  <wpt lat="50.23745" lon="2.1691">
    <ele>58.1</ele>
    <name><![CDATA[Chapelle]]></name>
  </wpt>
  <wpt lat="50.24204" lon="2.16535">
    <ele>83.8</ele>
    <name><![CDATA[À droite sur la petite route]]></name>
  </wpt>
  <wpt lat="50.24502" lon="2.16743">
    <ele>113.6</ele>
    <name><![CDATA[Quitter la petite route]]></name>
  </wpt>
  <wpt lat="50.23991" lon="2.17645">
    <ele>70.6</ele>
    <name><![CDATA[Carrefour en T]]></name>
  </wpt>
  <wpt lat="50.24808" lon="2.17917">
    <ele>128.3</ele>
    <name><![CDATA[Entrée du ravin : flèche]]></name>
  </wpt>
  <wpt lat="50.24418" lon="2.18746">
    <ele>76.2</ele>
    <name><![CDATA[Sortie du bois]]></name>
  </wpt>
  <wpt lat="50.24732" lon="2.20093">
    <ele>89.3</ele>
    <name><![CDATA[Quatrième barrière]]></name>
  </wpt>
  <wpt lat="50.2439" lon="2.19334">
    <ele>68.4</ele>
    <name><![CDATA[Chemin montant sur la gauche]]></name>
  </wpt>
  <wpt lat="50.24105" lon="2.19499">
    <ele>83.2</ele>
    <name><![CDATA[Jonction avec le GR°°®°° Canche-Authie]]></name>
  </wpt>
  <wpt lat="50.23594" lon="2.18059">
    <ele>69.3</ele>
    <name><![CDATA[Coin pique-nique]]></name>
  </wpt>
  <wpt lat="50.23451" lon="2.17496">
    <ele>53.1</ele>
    <name><![CDATA[Place de la Mairie à Nœux-lès-Auxi]]></name>
  </wpt>
  <trk>
    <name><![CDATA[L'Authie, le ravin et la lande]]></name>
    <extensions>
      <line xmlns="http://www.topografix.com/GPX/gpx_style/0/2">
        <color>0000FF</color>
        <width>4</width>
      </line>
    </extensions>
    <trkseg>
      <trkpt lat="50.23452" lon="2.17491">
        <ele>53</ele>
        <time>2021-05-01T13:52:18+02:00</time>
      </trkpt>
      <trkpt lat="50.23429" lon="2.17483">
        <ele>53</ele>
        <time>2021-05-01T13:52:23+02:00</time>
      </trkpt>
      <trkpt lat="50.23426" lon="2.17512">
        <ele>54</ele>
        <time>2021-05-01T13:52:28+02:00</time>
      </trkpt>
      <trkpt lat="50.23428" lon="2.17542">
        <ele>56</ele>
        <time>2021-05-01T13:52:33+02:00</time>
      </trkpt>
      <trkpt lat="50.23423" lon="2.17596">
        <ele>58</ele>
        <time>2021-05-01T13:52:38+02:00</time>
      </trkpt>
      <trkpt lat="50.23419" lon="2.17634">
        <ele>60</ele>
        <time>2021-05-01T13:52:43+02:00</time>
      </trkpt>
      <trkpt lat="50.2343" lon="2.17704">
        <ele>64</ele>
        <time>2021-05-01T13:52:48+02:00</time>
      </trkpt>
      <trkpt lat="50.23422" lon="2.17729">
        <ele>66</ele>
        <time>2021-05-01T13:52:53+02:00</time>
      </trkpt>
      <trkpt lat="50.23347" lon="2.17659">
        <ele>65</ele>
        <time>2021-05-01T13:52:58+02:00</time>
      </trkpt>
      <trkpt lat="50.23329" lon="2.17647">
        <ele>65</ele>
        <time>2021-05-01T13:53:03+02:00</time>
      </trkpt>
      <trkpt lat="50.23324" lon="2.17623">
        <ele>64</ele>
        <time>2021-05-01T13:53:08+02:00</time>
      </trkpt>
      <trkpt lat="50.2331" lon="2.17616">
        <ele>64</ele>
        <time>2021-05-01T13:53:13+02:00</time>
      </trkpt>
      <trkpt lat="50.23235" lon="2.17584">
        <ele>65</ele>
        <time>2021-05-01T13:53:18+02:00</time>
      </trkpt>
      <trkpt lat="50.23096" lon="2.17553">
        <ele>58</ele>
        <time>2021-05-01T13:53:23+02:00</time>
      </trkpt>
      <trkpt lat="50.22984" lon="2.17515">
        <ele>56</ele>
        <time>2021-05-01T13:53:28+02:00</time>
      </trkpt>
      <trkpt lat="50.22913" lon="2.17477">
        <ele>57</ele>
        <time>2021-05-01T13:53:33+02:00</time>
      </trkpt>
      <trkpt lat="50.22899" lon="2.17475">
        <ele>58</ele>
        <time>2021-05-01T13:53:38+02:00</time>
      </trkpt>
      <trkpt lat="50.22888" lon="2.17461">
        <ele>59</ele>
        <time>2021-05-01T13:53:43+02:00</time>
      </trkpt>
      <trkpt lat="50.22835" lon="2.17422">
        <ele>63</ele>
        <time>2021-05-01T13:53:48+02:00</time>
      </trkpt>
      <trkpt lat="50.22765" lon="2.17354">
        <ele>64</ele>
        <time>2021-05-01T13:53:53+02:00</time>
      </trkpt>
      <trkpt lat="50.22703" lon="2.17291">
        <ele>63</ele>
        <time>2021-05-01T13:53:58+02:00</time>
      </trkpt>
      <trkpt lat="50.22663" lon="2.17249">
        <ele>60</ele>
        <time>2021-05-01T13:54:03+02:00</time>
      </trkpt>
      <trkpt lat="50.22611" lon="2.17202">
        <ele>59</ele>
        <time>2021-05-01T13:54:08+02:00</time>
      </trkpt>
      <trkpt lat="50.22577" lon="2.17158">
        <ele>58</ele>
        <time>2021-05-01T13:54:13+02:00</time>
      </trkpt>
      <trkpt lat="50.22535" lon="2.171">
        <ele>55</ele>
        <time>2021-05-01T13:54:18+02:00</time>
      </trkpt>
      <trkpt lat="50.22489" lon="2.17027">
        <ele>51</ele>
        <time>2021-05-01T13:54:23+02:00</time>
      </trkpt>
      <trkpt lat="50.22454" lon="2.16934">
        <ele>49</ele>
        <time>2021-05-01T13:54:28+02:00</time>
      </trkpt>
      <trkpt lat="50.22434" lon="2.16855">
        <ele>49</ele>
        <time>2021-05-01T13:54:33+02:00</time>
      </trkpt>
      <trkpt lat="50.22414" lon="2.16765">
        <ele>46</ele>
        <time>2021-05-01T13:54:38+02:00</time>
      </trkpt>
      <trkpt lat="50.22408" lon="2.1671">
        <ele>45</ele>
        <time>2021-05-01T13:54:43+02:00</time>
      </trkpt>
      <trkpt lat="50.22401" lon="2.16615">
        <ele>42</ele>
        <time>2021-05-01T13:54:48+02:00</time>
      </trkpt>
      <trkpt lat="50.22397" lon="2.16494">
        <ele>42</ele>
        <time>2021-05-01T13:54:53+02:00</time>
      </trkpt>
      <trkpt lat="50.22393" lon="2.16416">
        <ele>41</ele>
        <time>2021-05-01T13:54:58+02:00</time>
      </trkpt>
      <trkpt lat="50.22386" lon="2.16357">
        <ele>42</ele>
        <time>2021-05-01T13:55:03+02:00</time>
      </trkpt>
      <trkpt lat="50.22378" lon="2.16305">
        <ele>43</ele>
        <time>2021-05-01T13:55:08+02:00</time>
      </trkpt>
      <trkpt lat="50.22367" lon="2.16244">
        <ele>45</ele>
        <time>2021-05-01T13:55:13+02:00</time>
      </trkpt>
      <trkpt lat="50.22347" lon="2.16168">
        <ele>47</ele>
        <time>2021-05-01T13:55:18+02:00</time>
      </trkpt>
      <trkpt lat="50.2232" lon="2.16095">
        <ele>48</ele>
        <time>2021-05-01T13:55:23+02:00</time>
      </trkpt>
      <trkpt lat="50.2229" lon="2.16019">
        <ele>48</ele>
        <time>2021-05-01T13:55:28+02:00</time>
      </trkpt>
      <trkpt lat="50.22268" lon="2.1596">
        <ele>48</ele>
        <time>2021-05-01T13:55:33+02:00</time>
      </trkpt>
      <trkpt lat="50.22242" lon="2.15876">
        <ele>48</ele>
        <time>2021-05-01T13:55:38+02:00</time>
      </trkpt>
      <trkpt lat="50.22229" lon="2.1582">
        <ele>48</ele>
        <time>2021-05-01T13:55:43+02:00</time>
      </trkpt>
      <trkpt lat="50.22217" lon="2.15753">
        <ele>49</ele>
        <time>2021-05-01T13:55:48+02:00</time>
      </trkpt>
      <trkpt lat="50.22215" lon="2.15694">
        <ele>49</ele>
        <time>2021-05-01T13:55:53+02:00</time>
      </trkpt>
      <trkpt lat="50.22213" lon="2.15627">
        <ele>48</ele>
        <time>2021-05-01T13:55:58+02:00</time>
      </trkpt>
      <trkpt lat="50.22215" lon="2.15561">
        <ele>48</ele>
        <time>2021-05-01T13:56:03+02:00</time>
      </trkpt>
      <trkpt lat="50.22219" lon="2.15491">
        <ele>46</ele>
        <time>2021-05-01T13:56:08+02:00</time>
      </trkpt>
      <trkpt lat="50.22222" lon="2.1541">
        <ele>46</ele>
        <time>2021-05-01T13:56:13+02:00</time>
      </trkpt>
      <trkpt lat="50.22231" lon="2.15277">
        <ele>47</ele>
        <time>2021-05-01T13:56:18+02:00</time>
      </trkpt>
      <trkpt lat="50.22238" lon="2.15199">
        <ele>48</ele>
        <time>2021-05-01T13:56:23+02:00</time>
      </trkpt>
      <trkpt lat="50.22245" lon="2.15112">
        <ele>47</ele>
        <time>2021-05-01T13:56:28+02:00</time>
      </trkpt>
      <trkpt lat="50.22252" lon="2.15027">
        <ele>46</ele>
        <time>2021-05-01T13:56:33+02:00</time>
      </trkpt>
      <trkpt lat="50.22257" lon="2.14961">
        <ele>45</ele>
        <time>2021-05-01T13:56:38+02:00</time>
      </trkpt>
      <trkpt lat="50.22263" lon="2.14921">
        <ele>45</ele>
        <time>2021-05-01T13:56:43+02:00</time>
      </trkpt>
      <trkpt lat="50.22265" lon="2.14894">
        <ele>45</ele>
        <time>2021-05-01T13:56:48+02:00</time>
      </trkpt>
      <trkpt lat="50.22265" lon="2.14879">
        <ele>45</ele>
        <time>2021-05-01T13:56:53+02:00</time>
      </trkpt>
      <trkpt lat="50.22254" lon="2.14879">
        <ele>44</ele>
        <time>2021-05-01T13:56:58+02:00</time>
      </trkpt>
      <trkpt lat="50.22249" lon="2.14864">
        <ele>43</ele>
        <time>2021-05-01T13:57:03+02:00</time>
      </trkpt>
      <trkpt lat="50.22247" lon="2.14849">
        <ele>43</ele>
        <time>2021-05-01T13:57:08+02:00</time>
      </trkpt>
      <trkpt lat="50.22254" lon="2.14772">
        <ele>42</ele>
        <time>2021-05-01T13:57:13+02:00</time>
      </trkpt>
      <trkpt lat="50.22257" lon="2.14651">
        <ele>39</ele>
        <time>2021-05-01T13:57:18+02:00</time>
      </trkpt>
      <trkpt lat="50.22265" lon="2.14566">
        <ele>39</ele>
        <time>2021-05-01T13:57:23+02:00</time>
      </trkpt>
      <trkpt lat="50.22272" lon="2.14468">
        <ele>37</ele>
        <time>2021-05-01T13:57:28+02:00</time>
      </trkpt>
      <trkpt lat="50.22273" lon="2.14437">
        <ele>36</ele>
        <time>2021-05-01T13:57:33+02:00</time>
      </trkpt>
      <trkpt lat="50.22277" lon="2.14408">
        <ele>36</ele>
        <time>2021-05-01T13:57:38+02:00</time>
      </trkpt>
      <trkpt lat="50.22292" lon="2.14365">
        <ele>37</ele>
        <time>2021-05-01T13:57:43+02:00</time>
      </trkpt>
      <trkpt lat="50.2231" lon="2.14329">
        <ele>37</ele>
        <time>2021-05-01T13:57:48+02:00</time>
      </trkpt>
      <trkpt lat="50.22322" lon="2.14302">
        <ele>38</ele>
        <time>2021-05-01T13:57:53+02:00</time>
      </trkpt>
      <trkpt lat="50.22332" lon="2.14285">
        <ele>38</ele>
        <time>2021-05-01T13:57:58+02:00</time>
      </trkpt>
      <trkpt lat="50.22296" lon="2.14265">
        <ele>36</ele>
        <time>2021-05-01T13:58:03+02:00</time>
      </trkpt>
      <trkpt lat="50.22223" lon="2.14229">
        <ele>33</ele>
        <time>2021-05-01T13:58:08+02:00</time>
      </trkpt>
      <trkpt lat="50.22177" lon="2.14206">
        <ele>33</ele>
        <time>2021-05-01T13:58:13+02:00</time>
      </trkpt>
      <trkpt lat="50.22203" lon="2.14127">
        <ele>33</ele>
        <time>2021-05-01T13:58:18+02:00</time>
      </trkpt>
      <trkpt lat="50.22217" lon="2.14093">
        <ele>32</ele>
        <time>2021-05-01T13:58:23+02:00</time>
      </trkpt>
      <trkpt lat="50.22223" lon="2.14081">
        <ele>32</ele>
        <time>2021-05-01T13:58:28+02:00</time>
      </trkpt>
      <trkpt lat="50.22246" lon="2.14028">
        <ele>33</ele>
        <time>2021-05-01T13:58:33+02:00</time>
      </trkpt>
      <trkpt lat="50.22268" lon="2.13979">
        <ele>33</ele>
        <time>2021-05-01T13:58:38+02:00</time>
      </trkpt>
      <trkpt lat="50.22291" lon="2.13934">
        <ele>33</ele>
        <time>2021-05-01T13:58:43+02:00</time>
      </trkpt>
      <trkpt lat="50.2231" lon="2.13899">
        <ele>33</ele>
        <time>2021-05-01T13:58:48+02:00</time>
      </trkpt>
      <trkpt lat="50.22326" lon="2.13876">
        <ele>33</ele>
        <time>2021-05-01T13:58:53+02:00</time>
      </trkpt>
      <trkpt lat="50.22341" lon="2.13848">
        <ele>33</ele>
        <time>2021-05-01T13:58:58+02:00</time>
      </trkpt>
      <trkpt lat="50.22356" lon="2.13839">
        <ele>34</ele>
        <time>2021-05-01T13:59:03+02:00</time>
      </trkpt>
      <trkpt lat="50.22362" lon="2.13822">
        <ele>34</ele>
        <time>2021-05-01T13:59:08+02:00</time>
      </trkpt>
      <trkpt lat="50.22374" lon="2.13786">
        <ele>34</ele>
        <time>2021-05-01T13:59:13+02:00</time>
      </trkpt>
      <trkpt lat="50.22375" lon="2.13762">
        <ele>33</ele>
        <time>2021-05-01T13:59:18+02:00</time>
      </trkpt>
      <trkpt lat="50.22375" lon="2.13742">
        <ele>33</ele>
        <time>2021-05-01T13:59:23+02:00</time>
      </trkpt>
      <trkpt lat="50.22365" lon="2.1372">
        <ele>33</ele>
        <time>2021-05-01T13:59:28+02:00</time>
      </trkpt>
      <trkpt lat="50.22353" lon="2.13693">
        <ele>32</ele>
        <time>2021-05-01T13:59:33+02:00</time>
      </trkpt>
      <trkpt lat="50.22347" lon="2.13676">
        <ele>32</ele>
        <time>2021-05-01T13:59:38+02:00</time>
      </trkpt>
      <trkpt lat="50.22342" lon="2.13656">
        <ele>32</ele>
        <time>2021-05-01T13:59:43+02:00</time>
      </trkpt>
      <trkpt lat="50.22343" lon="2.13643">
        <ele>32</ele>
        <time>2021-05-01T13:59:48+02:00</time>
      </trkpt>
      <trkpt lat="50.22354" lon="2.13595">
        <ele>32</ele>
        <time>2021-05-01T13:59:53+02:00</time>
      </trkpt>
      <trkpt lat="50.2236" lon="2.13544">
        <ele>32</ele>
        <time>2021-05-01T13:59:58+02:00</time>
      </trkpt>
      <trkpt lat="50.22372" lon="2.13507">
        <ele>32</ele>
        <time>2021-05-01T14:00:03+02:00</time>
      </trkpt>
      <trkpt lat="50.22389" lon="2.13459">
        <ele>32</ele>
        <time>2021-05-01T14:00:08+02:00</time>
      </trkpt>
      <trkpt lat="50.22402" lon="2.13423">
        <ele>32</ele>
        <time>2021-05-01T14:00:13+02:00</time>
      </trkpt>
      <trkpt lat="50.22416" lon="2.13393">
        <ele>32</ele>
        <time>2021-05-01T14:00:18+02:00</time>
      </trkpt>
      <trkpt lat="50.2244" lon="2.13363">
        <ele>33</ele>
        <time>2021-05-01T14:00:23+02:00</time>
      </trkpt>
      <trkpt lat="50.2245" lon="2.13347">
        <ele>33</ele>
        <time>2021-05-01T14:00:28+02:00</time>
      </trkpt>
      <trkpt lat="50.22457" lon="2.13337">
        <ele>33</ele>
        <time>2021-05-01T14:00:33+02:00</time>
      </trkpt>
      <trkpt lat="50.2246" lon="2.13317">
        <ele>33</ele>
        <time>2021-05-01T14:00:38+02:00</time>
      </trkpt>
      <trkpt lat="50.22463" lon="2.13304">
        <ele>34</ele>
        <time>2021-05-01T14:00:43+02:00</time>
      </trkpt>
      <trkpt lat="50.22483" lon="2.13271">
        <ele>34</ele>
        <time>2021-05-01T14:00:48+02:00</time>
      </trkpt>
      <trkpt lat="50.2251" lon="2.13235">
        <ele>34</ele>
        <time>2021-05-01T14:00:53+02:00</time>
      </trkpt>
      <trkpt lat="50.22531" lon="2.13214">
        <ele>34</ele>
        <time>2021-05-01T14:00:58+02:00</time>
      </trkpt>
      <trkpt lat="50.22552" lon="2.13192">
        <ele>34</ele>
        <time>2021-05-01T14:01:03+02:00</time>
      </trkpt>
      <trkpt lat="50.22566" lon="2.13173">
        <ele>34</ele>
        <time>2021-05-01T14:01:08+02:00</time>
      </trkpt>
      <trkpt lat="50.22574" lon="2.13149">
        <ele>34</ele>
        <time>2021-05-01T14:01:13+02:00</time>
      </trkpt>
      <trkpt lat="50.22576" lon="2.1312">
        <ele>33</ele>
        <time>2021-05-01T14:01:18+02:00</time>
      </trkpt>
      <trkpt lat="50.22579" lon="2.13095">
        <ele>33</ele>
        <time>2021-05-01T14:01:23+02:00</time>
      </trkpt>
      <trkpt lat="50.22579" lon="2.13057">
        <ele>33</ele>
        <time>2021-05-01T14:01:28+02:00</time>
      </trkpt>
      <trkpt lat="50.22579" lon="2.13034">
        <ele>33</ele>
        <time>2021-05-01T14:01:33+02:00</time>
      </trkpt>
      <trkpt lat="50.22581" lon="2.13007">
        <ele>33</ele>
        <time>2021-05-01T14:01:38+02:00</time>
      </trkpt>
      <trkpt lat="50.22586" lon="2.12967">
        <ele>33</ele>
        <time>2021-05-01T14:01:43+02:00</time>
      </trkpt>
      <trkpt lat="50.22592" lon="2.12935">
        <ele>33</ele>
        <time>2021-05-01T14:01:48+02:00</time>
      </trkpt>
      <trkpt lat="50.22595" lon="2.12909">
        <ele>33</ele>
        <time>2021-05-01T14:01:53+02:00</time>
      </trkpt>
      <trkpt lat="50.22597" lon="2.1287">
        <ele>32</ele>
        <time>2021-05-01T14:01:58+02:00</time>
      </trkpt>
      <trkpt lat="50.22597" lon="2.12829">
        <ele>31</ele>
        <time>2021-05-01T14:02:03+02:00</time>
      </trkpt>
      <trkpt lat="50.22594" lon="2.12814">
        <ele>31</ele>
        <time>2021-05-01T14:02:08+02:00</time>
      </trkpt>
      <trkpt lat="50.22579" lon="2.12799">
        <ele>31</ele>
        <time>2021-05-01T14:02:13+02:00</time>
      </trkpt>
      <trkpt lat="50.22564" lon="2.12799">
        <ele>31</ele>
        <time>2021-05-01T14:02:18+02:00</time>
      </trkpt>
      <trkpt lat="50.22552" lon="2.12801">
        <ele>31</ele>
        <time>2021-05-01T14:02:23+02:00</time>
      </trkpt>
      <trkpt lat="50.22541" lon="2.12795">
        <ele>30</ele>
        <time>2021-05-01T14:02:28+02:00</time>
      </trkpt>
      <trkpt lat="50.22536" lon="2.12786">
        <ele>31</ele>
        <time>2021-05-01T14:02:33+02:00</time>
      </trkpt>
      <trkpt lat="50.2254" lon="2.12746">
        <ele>31</ele>
        <time>2021-05-01T14:02:38+02:00</time>
      </trkpt>
      <trkpt lat="50.22545" lon="2.12705">
        <ele>31</ele>
        <time>2021-05-01T14:02:43+02:00</time>
      </trkpt>
      <trkpt lat="50.22551" lon="2.12669">
        <ele>31</ele>
        <time>2021-05-01T14:02:48+02:00</time>
      </trkpt>
      <trkpt lat="50.22555" lon="2.12644">
        <ele>31</ele>
        <time>2021-05-01T14:02:53+02:00</time>
      </trkpt>
      <trkpt lat="50.2256" lon="2.12639">
        <ele>31</ele>
        <time>2021-05-01T14:02:58+02:00</time>
      </trkpt>
      <trkpt lat="50.22574" lon="2.12627">
        <ele>31</ele>
        <time>2021-05-01T14:03:03+02:00</time>
      </trkpt>
      <trkpt lat="50.2258" lon="2.12618">
        <ele>30</ele>
        <time>2021-05-01T14:03:08+02:00</time>
      </trkpt>
      <trkpt lat="50.22585" lon="2.12605">
        <ele>30</ele>
        <time>2021-05-01T14:03:13+02:00</time>
      </trkpt>
      <trkpt lat="50.22676" lon="2.12696">
        <ele>33</ele>
        <time>2021-05-01T14:03:18+02:00</time>
      </trkpt>
      <trkpt lat="50.22703" lon="2.12732">
        <ele>34</ele>
        <time>2021-05-01T14:03:23+02:00</time>
      </trkpt>
      <trkpt lat="50.22724" lon="2.12754">
        <ele>35</ele>
        <time>2021-05-01T14:03:28+02:00</time>
      </trkpt>
      <trkpt lat="50.22758" lon="2.12787">
        <ele>37</ele>
        <time>2021-05-01T14:03:33+02:00</time>
      </trkpt>
      <trkpt lat="50.22806" lon="2.12838">
        <ele>40</ele>
        <time>2021-05-01T14:03:38+02:00</time>
      </trkpt>
      <trkpt lat="50.22803" lon="2.12852">
        <ele>40</ele>
        <time>2021-05-01T14:03:43+02:00</time>
      </trkpt>
      <trkpt lat="50.22816" lon="2.12867">
        <ele>41</ele>
        <time>2021-05-01T14:03:48+02:00</time>
      </trkpt>
      <trkpt lat="50.22828" lon="2.12872">
        <ele>42</ele>
        <time>2021-05-01T14:03:53+02:00</time>
      </trkpt>
      <trkpt lat="50.22839" lon="2.12874">
        <ele>42</ele>
        <time>2021-05-01T14:03:58+02:00</time>
      </trkpt>
      <trkpt lat="50.22844" lon="2.12886">
        <ele>43</ele>
        <time>2021-05-01T14:04:03+02:00</time>
      </trkpt>
      <trkpt lat="50.22859" lon="2.12896">
        <ele>44</ele>
        <time>2021-05-01T14:04:08+02:00</time>
      </trkpt>
      <trkpt lat="50.22874" lon="2.12902">
        <ele>44</ele>
        <time>2021-05-01T14:04:13+02:00</time>
      </trkpt>
      <trkpt lat="50.22886" lon="2.12902">
        <ele>45</ele>
        <time>2021-05-01T14:04:18+02:00</time>
      </trkpt>
      <trkpt lat="50.22893" lon="2.12886">
        <ele>45</ele>
        <time>2021-05-01T14:04:23+02:00</time>
      </trkpt>
      <trkpt lat="50.22905" lon="2.12874">
        <ele>46</ele>
        <time>2021-05-01T14:04:28+02:00</time>
      </trkpt>
      <trkpt lat="50.22914" lon="2.12849">
        <ele>47</ele>
        <time>2021-05-01T14:04:33+02:00</time>
      </trkpt>
      <trkpt lat="50.22921" lon="2.12833">
        <ele>48</ele>
        <time>2021-05-01T14:04:38+02:00</time>
      </trkpt>
      <trkpt lat="50.22926" lon="2.12824">
        <ele>48</ele>
        <time>2021-05-01T14:04:43+02:00</time>
      </trkpt>
      <trkpt lat="50.22942" lon="2.12843">
        <ele>50</ele>
        <time>2021-05-01T14:04:48+02:00</time>
      </trkpt>
      <trkpt lat="50.22958" lon="2.12846">
        <ele>52</ele>
        <time>2021-05-01T14:04:53+02:00</time>
      </trkpt>
      <trkpt lat="50.22969" lon="2.12846">
        <ele>53</ele>
        <time>2021-05-01T14:04:58+02:00</time>
      </trkpt>
      <trkpt lat="50.22982" lon="2.12841">
        <ele>55</ele>
        <time>2021-05-01T14:05:03+02:00</time>
      </trkpt>
      <trkpt lat="50.22991" lon="2.12831">
        <ele>56</ele>
        <time>2021-05-01T14:05:08+02:00</time>
      </trkpt>
      <trkpt lat="50.23006" lon="2.12815">
        <ele>58</ele>
        <time>2021-05-01T14:05:13+02:00</time>
      </trkpt>
      <trkpt lat="50.23022" lon="2.12785">
        <ele>61</ele>
        <time>2021-05-01T14:05:18+02:00</time>
      </trkpt>
      <trkpt lat="50.23027" lon="2.12778">
        <ele>61</ele>
        <time>2021-05-01T14:05:23+02:00</time>
      </trkpt>
      <trkpt lat="50.23068" lon="2.12768">
        <ele>66</ele>
        <time>2021-05-01T14:05:28+02:00</time>
      </trkpt>
      <trkpt lat="50.23102" lon="2.12768">
        <ele>69</ele>
        <time>2021-05-01T14:05:33+02:00</time>
      </trkpt>
      <trkpt lat="50.2313" lon="2.12775">
        <ele>71</ele>
        <time>2021-05-01T14:05:38+02:00</time>
      </trkpt>
      <trkpt lat="50.23163" lon="2.12792">
        <ele>73</ele>
        <time>2021-05-01T14:05:43+02:00</time>
      </trkpt>
      <trkpt lat="50.23184" lon="2.12813">
        <ele>75</ele>
        <time>2021-05-01T14:05:48+02:00</time>
      </trkpt>
      <trkpt lat="50.23203" lon="2.12837">
        <ele>78</ele>
        <time>2021-05-01T14:05:53+02:00</time>
      </trkpt>
      <trkpt lat="50.23213" lon="2.12854">
        <ele>79</ele>
        <time>2021-05-01T14:05:58+02:00</time>
      </trkpt>
      <trkpt lat="50.23243" lon="2.12927">
        <ele>84</ele>
        <time>2021-05-01T14:06:03+02:00</time>
      </trkpt>
      <trkpt lat="50.23251" lon="2.12964">
        <ele>85</ele>
        <time>2021-05-01T14:06:08+02:00</time>
      </trkpt>
      <trkpt lat="50.23258" lon="2.13016">
        <ele>88</ele>
        <time>2021-05-01T14:06:13+02:00</time>
      </trkpt>
      <trkpt lat="50.23255" lon="2.13074">
        <ele>88</ele>
        <time>2021-05-01T14:06:18+02:00</time>
      </trkpt>
      <trkpt lat="50.2327" lon="2.13234">
        <ele>90</ele>
        <time>2021-05-01T14:06:23+02:00</time>
      </trkpt>
      <trkpt lat="50.23275" lon="2.13314">
        <ele>90</ele>
        <time>2021-05-01T14:06:28+02:00</time>
      </trkpt>
      <trkpt lat="50.23293" lon="2.13748">
        <ele>96</ele>
        <time>2021-05-01T14:06:33+02:00</time>
      </trkpt>
      <trkpt lat="50.23307" lon="2.13898">
        <ele>104</ele>
        <time>2021-05-01T14:06:38+02:00</time>
      </trkpt>
      <trkpt lat="50.23314" lon="2.13999">
        <ele>111</ele>
        <time>2021-05-01T14:06:43+02:00</time>
      </trkpt>
      <trkpt lat="50.23327" lon="2.1409">
        <ele>121</ele>
        <time>2021-05-01T14:06:48+02:00</time>
      </trkpt>
      <trkpt lat="50.23343" lon="2.1423">
        <ele>123</ele>
        <time>2021-05-01T14:06:53+02:00</time>
      </trkpt>
      <trkpt lat="50.23359" lon="2.14386">
        <ele>124</ele>
        <time>2021-05-01T14:06:58+02:00</time>
      </trkpt>
      <trkpt lat="50.23391" lon="2.14521">
        <ele>127</ele>
        <time>2021-05-01T14:07:03+02:00</time>
      </trkpt>
      <trkpt lat="50.23435" lon="2.14679">
        <ele>130</ele>
        <time>2021-05-01T14:07:08+02:00</time>
      </trkpt>
      <trkpt lat="50.23465" lon="2.14773">
        <ele>131</ele>
        <time>2021-05-01T14:07:13+02:00</time>
      </trkpt>
      <trkpt lat="50.23521" lon="2.14874">
        <ele>132</ele>
        <time>2021-05-01T14:07:18+02:00</time>
      </trkpt>
      <trkpt lat="50.23417" lon="2.14976">
        <ele>124</ele>
        <time>2021-05-01T14:07:23+02:00</time>
      </trkpt>
      <trkpt lat="50.23344" lon="2.15044">
        <ele>122</ele>
        <time>2021-05-01T14:07:28+02:00</time>
      </trkpt>
      <trkpt lat="50.23225" lon="2.15142">
        <ele>118</ele>
        <time>2021-05-01T14:07:33+02:00</time>
      </trkpt>
      <trkpt lat="50.23308" lon="2.15215">
        <ele>120</ele>
        <time>2021-05-01T14:07:38+02:00</time>
      </trkpt>
      <trkpt lat="50.23454" lon="2.15284">
        <ele>116</ele>
        <time>2021-05-01T14:07:43+02:00</time>
      </trkpt>
      <trkpt lat="50.23469" lon="2.15363">
        <ele>111</ele>
        <time>2021-05-01T14:07:48+02:00</time>
      </trkpt>
      <trkpt lat="50.23476" lon="2.15385">
        <ele>110</ele>
        <time>2021-05-01T14:07:53+02:00</time>
      </trkpt>
      <trkpt lat="50.23491" lon="2.15511">
        <ele>102</ele>
        <time>2021-05-01T14:07:58+02:00</time>
      </trkpt>
      <trkpt lat="50.23521" lon="2.15619">
        <ele>96</ele>
        <time>2021-05-01T14:08:03+02:00</time>
      </trkpt>
      <trkpt lat="50.23561" lon="2.15778">
        <ele>90</ele>
        <time>2021-05-01T14:08:08+02:00</time>
      </trkpt>
      <trkpt lat="50.23616" lon="2.16046">
        <ele>83</ele>
        <time>2021-05-01T14:08:13+02:00</time>
      </trkpt>
      <trkpt lat="50.23645" lon="2.16209">
        <ele>76</ele>
        <time>2021-05-01T14:08:18+02:00</time>
      </trkpt>
      <trkpt lat="50.23661" lon="2.16325">
        <ele>71</ele>
        <time>2021-05-01T14:08:23+02:00</time>
      </trkpt>
      <trkpt lat="50.23669" lon="2.16385">
        <ele>69</ele>
        <time>2021-05-01T14:08:28+02:00</time>
      </trkpt>
      <trkpt lat="50.23683" lon="2.16453">
        <ele>68</ele>
        <time>2021-05-01T14:08:33+02:00</time>
      </trkpt>
      <trkpt lat="50.23683" lon="2.16578">
        <ele>66</ele>
        <time>2021-05-01T14:08:38+02:00</time>
      </trkpt>
      <trkpt lat="50.23701" lon="2.16698">
        <ele>63</ele>
        <time>2021-05-01T14:08:43+02:00</time>
      </trkpt>
      <trkpt lat="50.23732" lon="2.16773">
        <ele>60</ele>
        <time>2021-05-01T14:08:48+02:00</time>
      </trkpt>
      <trkpt lat="50.23749" lon="2.16857">
        <ele>58</ele>
        <time>2021-05-01T14:08:53+02:00</time>
      </trkpt>
      <trkpt lat="50.2375" lon="2.16893">
        <ele>58</ele>
        <time>2021-05-01T14:08:58+02:00</time>
      </trkpt>
      <trkpt lat="50.23745" lon="2.1691">
        <ele>58</ele>
        <time>2021-05-01T14:09:03+02:00</time>
      </trkpt>
      <trkpt lat="50.23769" lon="2.16887">
        <ele>59</ele>
        <time>2021-05-01T14:09:08+02:00</time>
      </trkpt>
      <trkpt lat="50.23804" lon="2.16863">
        <ele>60</ele>
        <time>2021-05-01T14:09:13+02:00</time>
      </trkpt>
      <trkpt lat="50.23826" lon="2.16848">
        <ele>61</ele>
        <time>2021-05-01T14:09:18+02:00</time>
      </trkpt>
      <trkpt lat="50.23873" lon="2.16818">
        <ele>63</ele>
        <time>2021-05-01T14:09:23+02:00</time>
      </trkpt>
      <trkpt lat="50.23889" lon="2.16824">
        <ele>63</ele>
        <time>2021-05-01T14:09:28+02:00</time>
      </trkpt>
      <trkpt lat="50.2391" lon="2.16817">
        <ele>64</ele>
        <time>2021-05-01T14:09:33+02:00</time>
      </trkpt>
      <trkpt lat="50.23935" lon="2.16801">
        <ele>66</ele>
        <time>2021-05-01T14:09:38+02:00</time>
      </trkpt>
      <trkpt lat="50.23953" lon="2.16789">
        <ele>67</ele>
        <time>2021-05-01T14:09:43+02:00</time>
      </trkpt>
      <trkpt lat="50.23994" lon="2.16804">
        <ele>69</ele>
        <time>2021-05-01T14:09:48+02:00</time>
      </trkpt>
      <trkpt lat="50.24021" lon="2.16795">
        <ele>71</ele>
        <time>2021-05-01T14:09:53+02:00</time>
      </trkpt>
      <trkpt lat="50.24051" lon="2.16762">
        <ele>73</ele>
        <time>2021-05-01T14:09:58+02:00</time>
      </trkpt>
      <trkpt lat="50.24062" lon="2.16746">
        <ele>73</ele>
        <time>2021-05-01T14:10:03+02:00</time>
      </trkpt>
      <trkpt lat="50.24079" lon="2.16726">
        <ele>75</ele>
        <time>2021-05-01T14:10:08+02:00</time>
      </trkpt>
      <trkpt lat="50.24096" lon="2.16706">
        <ele>77</ele>
        <time>2021-05-01T14:10:13+02:00</time>
      </trkpt>
      <trkpt lat="50.24107" lon="2.16679">
        <ele>79</ele>
        <time>2021-05-01T14:10:18+02:00</time>
      </trkpt>
      <trkpt lat="50.2413" lon="2.16633">
        <ele>80</ele>
        <time>2021-05-01T14:10:23+02:00</time>
      </trkpt>
      <trkpt lat="50.24157" lon="2.16592">
        <ele>82</ele>
        <time>2021-05-01T14:10:28+02:00</time>
      </trkpt>
      <trkpt lat="50.24179" lon="2.16564">
        <ele>82</ele>
        <time>2021-05-01T14:10:33+02:00</time>
      </trkpt>
      <trkpt lat="50.24204" lon="2.16535">
        <ele>83</ele>
        <time>2021-05-01T14:10:38+02:00</time>
      </trkpt>
      <trkpt lat="50.24279" lon="2.1654">
        <ele>88</ele>
        <time>2021-05-01T14:10:43+02:00</time>
      </trkpt>
      <trkpt lat="50.24298" lon="2.16549">
        <ele>90</ele>
        <time>2021-05-01T14:10:48+02:00</time>
      </trkpt>
      <trkpt lat="50.24326" lon="2.16599">
        <ele>92</ele>
        <time>2021-05-01T14:10:53+02:00</time>
      </trkpt>
      <trkpt lat="50.24389" lon="2.16673">
        <ele>100</ele>
        <time>2021-05-01T14:10:58+02:00</time>
      </trkpt>
      <trkpt lat="50.24415" lon="2.16707">
        <ele>102</ele>
        <time>2021-05-01T14:11:03+02:00</time>
      </trkpt>
      <trkpt lat="50.24446" lon="2.16724">
        <ele>106</ele>
        <time>2021-05-01T14:11:08+02:00</time>
      </trkpt>
      <trkpt lat="50.24464" lon="2.16741">
        <ele>107</ele>
        <time>2021-05-01T14:11:13+02:00</time>
      </trkpt>
      <trkpt lat="50.24502" lon="2.16743">
        <ele>113</ele>
        <time>2021-05-01T14:11:18+02:00</time>
      </trkpt>
      <trkpt lat="50.24505" lon="2.16765">
        <ele>112</ele>
        <time>2021-05-01T14:11:23+02:00</time>
      </trkpt>
      <trkpt lat="50.24521" lon="2.16794">
        <ele>112</ele>
        <time>2021-05-01T14:11:28+02:00</time>
      </trkpt>
      <trkpt lat="50.24607" lon="2.16897">
        <ele>116</ele>
        <time>2021-05-01T14:11:33+02:00</time>
      </trkpt>
      <trkpt lat="50.24647" lon="2.16944">
        <ele>121</ele>
        <time>2021-05-01T14:11:38+02:00</time>
      </trkpt>
      <trkpt lat="50.24665" lon="2.16976">
        <ele>123</ele>
        <time>2021-05-01T14:11:43+02:00</time>
      </trkpt>
      <trkpt lat="50.24658" lon="2.17025">
        <ele>123</ele>
        <time>2021-05-01T14:11:48+02:00</time>
      </trkpt>
      <trkpt lat="50.24636" lon="2.17158">
        <ele>128</ele>
        <time>2021-05-01T14:11:53+02:00</time>
      </trkpt>
      <trkpt lat="50.24624" lon="2.17177">
        <ele>128</ele>
        <time>2021-05-01T14:11:58+02:00</time>
      </trkpt>
      <trkpt lat="50.24596" lon="2.17195">
        <ele>128</ele>
        <time>2021-05-01T14:12:03+02:00</time>
      </trkpt>
      <trkpt lat="50.24488" lon="2.17248">
        <ele>132</ele>
        <time>2021-05-01T14:12:08+02:00</time>
      </trkpt>
      <trkpt lat="50.24465" lon="2.17246">
        <ele>133</ele>
        <time>2021-05-01T14:12:13+02:00</time>
      </trkpt>
      <trkpt lat="50.2442" lon="2.17159">
        <ele>132</ele>
        <time>2021-05-01T14:12:18+02:00</time>
      </trkpt>
      <trkpt lat="50.24377" lon="2.17173">
        <ele>131</ele>
        <time>2021-05-01T14:12:23+02:00</time>
      </trkpt>
      <trkpt lat="50.24335" lon="2.17187">
        <ele>130</ele>
        <time>2021-05-01T14:12:28+02:00</time>
      </trkpt>
      <trkpt lat="50.24248" lon="2.17206">
        <ele>122</ele>
        <time>2021-05-01T14:12:33+02:00</time>
      </trkpt>
      <trkpt lat="50.24206" lon="2.17203">
        <ele>116</ele>
        <time>2021-05-01T14:12:38+02:00</time>
      </trkpt>
      <trkpt lat="50.24178" lon="2.17197">
        <ele>112</ele>
        <time>2021-05-01T14:12:43+02:00</time>
      </trkpt>
      <trkpt lat="50.2416" lon="2.17175">
        <ele>109</ele>
        <time>2021-05-01T14:12:48+02:00</time>
      </trkpt>
      <trkpt lat="50.24139" lon="2.17143">
        <ele>107</ele>
        <time>2021-05-01T14:12:53+02:00</time>
      </trkpt>
      <trkpt lat="50.24135" lon="2.17072">
        <ele>106</ele>
        <time>2021-05-01T14:12:58+02:00</time>
      </trkpt>
      <trkpt lat="50.24129" lon="2.17057">
        <ele>104</ele>
        <time>2021-05-01T14:13:03+02:00</time>
      </trkpt>
      <trkpt lat="50.24088" lon="2.17047">
        <ele>99</ele>
        <time>2021-05-01T14:13:08+02:00</time>
      </trkpt>
      <trkpt lat="50.24053" lon="2.17045">
        <ele>94</ele>
        <time>2021-05-01T14:13:13+02:00</time>
      </trkpt>
      <trkpt lat="50.24035" lon="2.17074">
        <ele>92</ele>
        <time>2021-05-01T14:13:18+02:00</time>
      </trkpt>
      <trkpt lat="50.24027" lon="2.17133">
        <ele>90</ele>
        <time>2021-05-01T14:13:23+02:00</time>
      </trkpt>
      <trkpt lat="50.24023" lon="2.17182">
        <ele>87</ele>
        <time>2021-05-01T14:13:28+02:00</time>
      </trkpt>
      <trkpt lat="50.24035" lon="2.17233">
        <ele>87</ele>
        <time>2021-05-01T14:13:33+02:00</time>
      </trkpt>
      <trkpt lat="50.24021" lon="2.17302">
        <ele>83</ele>
        <time>2021-05-01T14:13:38+02:00</time>
      </trkpt>
      <trkpt lat="50.24015" lon="2.17346">
        <ele>82</ele>
        <time>2021-05-01T14:13:43+02:00</time>
      </trkpt>
      <trkpt lat="50.24013" lon="2.17388">
        <ele>80</ele>
        <time>2021-05-01T14:13:48+02:00</time>
      </trkpt>
      <trkpt lat="50.24009" lon="2.17521">
        <ele>76</ele>
        <time>2021-05-01T14:13:53+02:00</time>
      </trkpt>
      <trkpt lat="50.23994" lon="2.17577">
        <ele>73</ele>
        <time>2021-05-01T14:13:58+02:00</time>
      </trkpt>
      <trkpt lat="50.23991" lon="2.17645">
        <ele>71</ele>
        <time>2021-05-01T14:14:03+02:00</time>
      </trkpt>
      <trkpt lat="50.24136" lon="2.17685">
        <ele>93</ele>
        <time>2021-05-01T14:14:08+02:00</time>
      </trkpt>
      <trkpt lat="50.24169" lon="2.17768">
        <ele>97</ele>
        <time>2021-05-01T14:14:13+02:00</time>
      </trkpt>
      <trkpt lat="50.24205" lon="2.17864">
        <ele>100</ele>
        <time>2021-05-01T14:14:18+02:00</time>
      </trkpt>
      <trkpt lat="50.24235" lon="2.17901">
        <ele>104</ele>
        <time>2021-05-01T14:14:23+02:00</time>
      </trkpt>
      <trkpt lat="50.24277" lon="2.17916">
        <ele>108</ele>
        <time>2021-05-01T14:14:28+02:00</time>
      </trkpt>
      <trkpt lat="50.2433" lon="2.17896">
        <ele>114</ele>
        <time>2021-05-01T14:14:33+02:00</time>
      </trkpt>
      <trkpt lat="50.24369" lon="2.17891">
        <ele>118</ele>
        <time>2021-05-01T14:14:38+02:00</time>
      </trkpt>
      <trkpt lat="50.24433" lon="2.17946">
        <ele>122</ele>
        <time>2021-05-01T14:14:43+02:00</time>
      </trkpt>
      <trkpt lat="50.24491" lon="2.17956">
        <ele>125</ele>
        <time>2021-05-01T14:14:48+02:00</time>
      </trkpt>
      <trkpt lat="50.24544" lon="2.1795">
        <ele>126</ele>
        <time>2021-05-01T14:14:53+02:00</time>
      </trkpt>
      <trkpt lat="50.24588" lon="2.17938">
        <ele>126</ele>
        <time>2021-05-01T14:14:58+02:00</time>
      </trkpt>
      <trkpt lat="50.24699" lon="2.17914">
        <ele>128</ele>
        <time>2021-05-01T14:15:03+02:00</time>
      </trkpt>
      <trkpt lat="50.24738" lon="2.17901">
        <ele>129</ele>
        <time>2021-05-01T14:15:08+02:00</time>
      </trkpt>
      <trkpt lat="50.24763" lon="2.17887">
        <ele>129</ele>
        <time>2021-05-01T14:15:13+02:00</time>
      </trkpt>
      <trkpt lat="50.24786" lon="2.1787">
        <ele>129</ele>
        <time>2021-05-01T14:15:18+02:00</time>
      </trkpt>
      <trkpt lat="50.24808" lon="2.17917">
        <ele>129</ele>
        <time>2021-05-01T14:15:23+02:00</time>
      </trkpt>
      <trkpt lat="50.24777" lon="2.18006">
        <ele>127</ele>
        <time>2021-05-01T14:15:28+02:00</time>
      </trkpt>
      <trkpt lat="50.24743" lon="2.1809">
        <ele>125</ele>
        <time>2021-05-01T14:15:33+02:00</time>
      </trkpt>
      <trkpt lat="50.24714" lon="2.18154">
        <ele>124</ele>
        <time>2021-05-01T14:15:38+02:00</time>
      </trkpt>
      <trkpt lat="50.2468" lon="2.18233">
        <ele>121</ele>
        <time>2021-05-01T14:15:43+02:00</time>
      </trkpt>
      <trkpt lat="50.24659" lon="2.18289">
        <ele>119</ele>
        <time>2021-05-01T14:15:48+02:00</time>
      </trkpt>
      <trkpt lat="50.24637" lon="2.18338">
        <ele>117</ele>
        <time>2021-05-01T14:15:53+02:00</time>
      </trkpt>
      <trkpt lat="50.24606" lon="2.18435">
        <ele>109</ele>
        <time>2021-05-01T14:15:58+02:00</time>
      </trkpt>
      <trkpt lat="50.24572" lon="2.18521">
        <ele>100</ele>
        <time>2021-05-01T14:16:03+02:00</time>
      </trkpt>
      <trkpt lat="50.2452" lon="2.1865">
        <ele>85</ele>
        <time>2021-05-01T14:16:08+02:00</time>
      </trkpt>
      <trkpt lat="50.24508" lon="2.18667">
        <ele>81</ele>
        <time>2021-05-01T14:16:13+02:00</time>
      </trkpt>
      <trkpt lat="50.24476" lon="2.18705">
        <ele>78</ele>
        <time>2021-05-01T14:16:18+02:00</time>
      </trkpt>
      <trkpt lat="50.24448" lon="2.18724">
        <ele>75</ele>
        <time>2021-05-01T14:16:23+02:00</time>
      </trkpt>
      <trkpt lat="50.24418" lon="2.18746">
        <ele>71</ele>
        <time>2021-05-01T14:16:28+02:00</time>
      </trkpt>
      <trkpt lat="50.24421" lon="2.18759">
        <ele>72</ele>
        <time>2021-05-01T14:16:33+02:00</time>
      </trkpt>
      <trkpt lat="50.2444" lon="2.18819">
        <ele>79</ele>
        <time>2021-05-01T14:16:38+02:00</time>
      </trkpt>
      <trkpt lat="50.24447" lon="2.1887">
        <ele>85</ele>
        <time>2021-05-01T14:16:43+02:00</time>
      </trkpt>
      <trkpt lat="50.24432" lon="2.18939">
        <ele>88</ele>
        <time>2021-05-01T14:16:48+02:00</time>
      </trkpt>
      <trkpt lat="50.24415" lon="2.18993">
        <ele>87</ele>
        <time>2021-05-01T14:16:53+02:00</time>
      </trkpt>
      <trkpt lat="50.2441" lon="2.19064">
        <ele>84</ele>
        <time>2021-05-01T14:16:58+02:00</time>
      </trkpt>
      <trkpt lat="50.24436" lon="2.19132">
        <ele>87</ele>
        <time>2021-05-01T14:17:03+02:00</time>
      </trkpt>
      <trkpt lat="50.2447" lon="2.19235">
        <ele>89</ele>
        <time>2021-05-01T14:17:08+02:00</time>
      </trkpt>
      <trkpt lat="50.24514" lon="2.1937">
        <ele>89</ele>
        <time>2021-05-01T14:17:13+02:00</time>
      </trkpt>
      <trkpt lat="50.2457" lon="2.19495">
        <ele>94</ele>
        <time>2021-05-01T14:17:18+02:00</time>
      </trkpt>
      <trkpt lat="50.24592" lon="2.19568">
        <ele>93</ele>
        <time>2021-05-01T14:17:23+02:00</time>
      </trkpt>
      <trkpt lat="50.24606" lon="2.19639">
        <ele>95</ele>
        <time>2021-05-01T14:17:28+02:00</time>
      </trkpt>
      <trkpt lat="50.246" lon="2.19763">
        <ele>91</ele>
        <time>2021-05-01T14:17:33+02:00</time>
      </trkpt>
      <trkpt lat="50.24668" lon="2.19915">
        <ele>94</ele>
        <time>2021-05-01T14:17:38+02:00</time>
      </trkpt>
      <trkpt lat="50.24699" lon="2.19967">
        <ele>94</ele>
        <time>2021-05-01T14:17:43+02:00</time>
      </trkpt>
      <trkpt lat="50.24732" lon="2.20093">
        <ele>88</ele>
        <time>2021-05-01T14:17:48+02:00</time>
      </trkpt>
      <trkpt lat="50.24695" lon="2.20139">
        <ele>80</ele>
        <time>2021-05-01T14:17:53+02:00</time>
      </trkpt>
      <trkpt lat="50.24672" lon="2.20145">
        <ele>77</ele>
        <time>2021-05-01T14:17:58+02:00</time>
      </trkpt>
      <trkpt lat="50.24637" lon="2.201">
        <ele>76</ele>
        <time>2021-05-01T14:18:03+02:00</time>
      </trkpt>
      <trkpt lat="50.24585" lon="2.20012">
        <ele>76</ele>
        <time>2021-05-01T14:18:08+02:00</time>
      </trkpt>
      <trkpt lat="50.24563" lon="2.19918">
        <ele>75</ele>
        <time>2021-05-01T14:18:13+02:00</time>
      </trkpt>
      <trkpt lat="50.24526" lon="2.19828">
        <ele>75</ele>
        <time>2021-05-01T14:18:18+02:00</time>
      </trkpt>
      <trkpt lat="50.24516" lon="2.1975">
        <ele>73</ele>
        <time>2021-05-01T14:18:23+02:00</time>
      </trkpt>
      <trkpt lat="50.24518" lon="2.19622">
        <ele>73</ele>
        <time>2021-05-01T14:18:28+02:00</time>
      </trkpt>
      <trkpt lat="50.24486" lon="2.19508">
        <ele>72</ele>
        <time>2021-05-01T14:18:33+02:00</time>
      </trkpt>
      <trkpt lat="50.24435" lon="2.19407">
        <ele>70</ele>
        <time>2021-05-01T14:18:38+02:00</time>
      </trkpt>
      <trkpt lat="50.2439" lon="2.19334">
        <ele>68</ele>
        <time>2021-05-01T14:18:43+02:00</time>
      </trkpt>
      <trkpt lat="50.24196" lon="2.19411">
        <ele>74</ele>
        <time>2021-05-01T14:18:48+02:00</time>
      </trkpt>
      <trkpt lat="50.24114" lon="2.19451">
        <ele>82</ele>
        <time>2021-05-01T14:18:53+02:00</time>
      </trkpt>
      <trkpt lat="50.24117" lon="2.19482">
        <ele>82</ele>
        <time>2021-05-01T14:18:58+02:00</time>
      </trkpt>
      <trkpt lat="50.24105" lon="2.19499">
        <ele>84</ele>
        <time>2021-05-01T14:19:03+02:00</time>
      </trkpt>
      <trkpt lat="50.24036" lon="2.19221">
        <ele>81</ele>
        <time>2021-05-01T14:19:08+02:00</time>
      </trkpt>
      <trkpt lat="50.2399" lon="2.19042">
        <ele>79</ele>
        <time>2021-05-01T14:19:13+02:00</time>
      </trkpt>
      <trkpt lat="50.23953" lon="2.18942">
        <ele>77</ele>
        <time>2021-05-01T14:19:18+02:00</time>
      </trkpt>
      <trkpt lat="50.23887" lon="2.18838">
        <ele>77</ele>
        <time>2021-05-01T14:19:23+02:00</time>
      </trkpt>
      <trkpt lat="50.23802" lon="2.18726">
        <ele>78</ele>
        <time>2021-05-01T14:19:28+02:00</time>
      </trkpt>
      <trkpt lat="50.23733" lon="2.18612">
        <ele>76</ele>
        <time>2021-05-01T14:19:33+02:00</time>
      </trkpt>
      <trkpt lat="50.237" lon="2.18541">
        <ele>73</ele>
        <time>2021-05-01T14:19:38+02:00</time>
      </trkpt>
      <trkpt lat="50.2367" lon="2.18477">
        <ele>72</ele>
        <time>2021-05-01T14:19:43+02:00</time>
      </trkpt>
      <trkpt lat="50.23648" lon="2.1839">
        <ele>69</ele>
        <time>2021-05-01T14:19:48+02:00</time>
      </trkpt>
      <trkpt lat="50.23634" lon="2.18283">
        <ele>71</ele>
        <time>2021-05-01T14:19:53+02:00</time>
      </trkpt>
      <trkpt lat="50.23616" lon="2.18178">
        <ele>72</ele>
        <time>2021-05-01T14:19:58+02:00</time>
      </trkpt>
      <trkpt lat="50.23605" lon="2.18116">
        <ele>71</ele>
        <time>2021-05-01T14:20:03+02:00</time>
      </trkpt>
      <trkpt lat="50.23594" lon="2.18059">
        <ele>69</ele>
        <time>2021-05-01T14:20:08+02:00</time>
      </trkpt>
      <trkpt lat="50.23565" lon="2.18032">
        <ele>70</ele>
        <time>2021-05-01T14:20:13+02:00</time>
      </trkpt>
      <trkpt lat="50.23546" lon="2.17982">
        <ele>70</ele>
        <time>2021-05-01T14:20:18+02:00</time>
      </trkpt>
      <trkpt lat="50.23516" lon="2.1789">
        <ele>69</ele>
        <time>2021-05-01T14:20:23+02:00</time>
      </trkpt>
      <trkpt lat="50.23498" lon="2.17841">
        <ele>68</ele>
        <time>2021-05-01T14:20:28+02:00</time>
      </trkpt>
      <trkpt lat="50.23483" lon="2.17813">
        <ele>67</ele>
        <time>2021-05-01T14:20:33+02:00</time>
      </trkpt>
      <trkpt lat="50.23458" lon="2.17783">
        <ele>67</ele>
        <time>2021-05-01T14:20:38+02:00</time>
      </trkpt>
      <trkpt lat="50.23448" lon="2.17769">
        <ele>67</ele>
        <time>2021-05-01T14:20:43+02:00</time>
      </trkpt>
      <trkpt lat="50.23421" lon="2.17739">
        <ele>67</ele>
        <time>2021-05-01T14:20:48+02:00</time>
      </trkpt>
      <trkpt lat="50.23419" lon="2.17726">
        <ele>66</ele>
        <time>2021-05-01T14:20:53+02:00</time>
      </trkpt>
      <trkpt lat="50.23427" lon="2.17712">
        <ele>65</ele>
        <time>2021-05-01T14:20:58+02:00</time>
      </trkpt>
      <trkpt lat="50.23431" lon="2.17694">
        <ele>63</ele>
        <time>2021-05-01T14:21:03+02:00</time>
      </trkpt>
      <trkpt lat="50.23423" lon="2.17651">
        <ele>61</ele>
        <time>2021-05-01T14:21:08+02:00</time>
      </trkpt>
      <trkpt lat="50.23421" lon="2.1761">
        <ele>59</ele>
        <time>2021-05-01T14:21:13+02:00</time>
      </trkpt>
      <trkpt lat="50.23426" lon="2.17553">
        <ele>56</ele>
        <time>2021-05-01T14:21:18+02:00</time>
      </trkpt>
      <trkpt lat="50.23426" lon="2.17521">
        <ele>55</ele>
        <time>2021-05-01T14:21:23+02:00</time>
      </trkpt>
      <trkpt lat="50.2343" lon="2.17491">
        <ele>53</ele>
        <time>2021-05-01T14:21:28+02:00</time>
      </trkpt>
      <trkpt lat="50.23451" lon="2.17496">
        <ele>53</ele>
        <time>2021-05-01T14:21:33+02:00</time>
      </trkpt>
    </trkseg>
  </trk>
</gpx>